Terminal Aerodrome Forecast
Issued by NWS New Orleans/Baton Rouge, LA

Home | Current Version | Previous Version | Text Only | Print | Product List | Glossary On
Versions: 1 2 3 4 5 6 7 8 9 10 11 12 13 14 15 16 17 18 19
548
FTUS44 KLIX 232336
TAFBTR
TAF
KBTR 232336Z 2400/2424 23005KT P6SM FEW035 FEW045
     FM240700 00000KT P6SM VCTS BKN020CB
     FM241100 VRB03KT P6SM VCSH BKN020 BKN170
     FM242200 30004KT P6SM VCTS BKN035CB BKN170=

USA.gov is the U.S. government's official web portal to all federal, state and local government web resources and services.